sensor_id;sensor_type;location;lat;lon;timestamp;temperature;humidity
38514;DHT22;24282;48.400;10.808;2024-02-26T00:02:24;4.60;79.20
38514;DHT22;24282;48.400;10.808;2024-02-26T00:04:49;4.50;79.20
38514;DHT22;24282;48.400;10.808;2024-02-26T00:07:16;4.50;79.00
38514;DHT22;24282;48.400;10.808;2024-02-26T00:09:42;4.50;79.00
38514;DHT22;24282;48.400;10.808;2024-02-26T00:12:07;4.50;79.10
38514;DHT22;24282;48.400;10.808;2024-02-26T00:14:33;4.40;79.10
38514;DHT22;24282;48.400;10.808;2024-02-26T00:17:00;4.40;79.20
38514;DHT22;24282;48.400;10.808;2024-02-26T00:19:25;4.40;79.30
38514;DHT22;24282;48.400;10.808;2024-02-26T00:21:51;4.30;79.40
38514;DHT22;24282;48.400;10.808;2024-02-26T00:24:19;4.30;79.30
38514;DHT22;24282;48.400;10.808;2024-02-26T00:26:45;4.20;79.20
38514;DHT22;24282;48.400;10.808;2024-02-26T00:29:10;4.20;79.30
38514;DHT22;24282;48.400;10.808;2024-02-26T00:31:37;4.20;79.40
38514;DHT22;24282;48.400;10.808;2024-02-26T00:34:03;4.20;79.60
38514;DHT22;24282;48.400;10.808;2024-02-26T00:36:29;4.20;79.50
38514;DHT22;24282;48.400;10.808;2024-02-26T00:38:55;4.10;79.50
38514;DHT22;24282;48.400;10.808;2024-02-26T00:41:21;4.10;79.50
38514;DHT22;24282;48.400;10.808;2024-02-26T00:43:47;4.10;79.50
38514;DHT22;24282;48.400;10.808;2024-02-26T00:46:13;4.10;79.50
38514;DHT22;24282;48.400;10.808;2024-02-26T00:48:38;4.00;79.50
38514;DHT22;24282;48.400;10.808;2024-02-26T00:51:05;4.00;79.60
38514;DHT22;24282;48.400;10.808;2024-02-26T00:53:31;4.00;79.70
38514;DHT22;24282;48.400;10.808;2024-02-26T00:55:57;4.00;80.00
38514;DHT22;24282;48.400;10.808;2024-02-26T00:58:25;4.00;80.10
38514;DHT22;24282;48.400;10.808;2024-02-26T01:00:51;4.00;80.20
38514;DHT22;24282;48.400;10.808;2024-02-26T01:03:17;4.00;80.30
38514;DHT22;24282;48.400;10.808;2024-02-26T01:05:43;4.10;80.30
38514;DHT22;24282;48.400;10.808;2024-02-26T01:08:09;4.10;80.10
38514;DHT22;24282;48.400;10.808;2024-02-26T01:10:35;4.00;80.20
38514;DHT22;24282;48.400;10.808;2024-02-26T01:13:01;4.10;80.20
38514;DHT22;24282;48.400;10.808;2024-02-26T01:15:27;4.10;80.10
38514;DHT22;24282;48.400;10.808;2024-02-26T01:17:53;4.10;80.20
38514;DHT22;24282;48.400;10.808;2024-02-26T01:20:19;4.10;80.40
38514;DHT22;24282;48.400;10.808;2024-02-26T01:22:45;4.10;80.50
38514;DHT22;24282;48.400;10.808;2024-02-26T01:25:10;4.10;80.60
38514;DHT22;24282;48.400;10.808;2024-02-26T01:27:37;4.10;80.60
38514;DHT22;24282;48.400;10.808;2024-02-26T01:30:06;4.10;80.60
38514;DHT22;24282;48.400;10.808;2024-02-26T01:32:32;4.10;80.80
38514;DHT22;24282;48.400;10.808;2024-02-26T01:34:58;4.10;80.60
38514;DHT22;24282;48.400;10.808;2024-02-26T01:37:24;4.10;80.30
38514;DHT22;24282;48.400;10.808;2024-02-26T01:39:49;4.10;80.20
38514;DHT22;24282;48.400;10.808;2024-02-26T01:42:15;4.10;80.20
38514;DHT22;24282;48.400;10.808;2024-02-26T01:44:41;4.00;80.20
38514;DHT22;24282;48.400;10.808;2024-02-26T01:47:11;4.10;80.30
38514;DHT22;24282;48.400;10.808;2024-02-26T01:49:37;4.00;80.40
38514;DHT22;24282;48.400;10.808;2024-02-26T01:52:06;4.00;80.50
38514;DHT22;24282;48.400;10.808;2024-02-26T01:54:35;4.00;80.60
38514;DHT22;24282;48.400;10.808;2024-02-26T01:57:03;4.00;81.00
38514;DHT22;24282;48.400;10.808;2024-02-26T01:59:29;4.00;81.20
38514;DHT22;24282;48.400;10.808;2024-02-26T02:01:57;4.00;81.30
38514;DHT22;24282;48.400;10.808;2024-02-26T02:04:24;4.00;81.30
38514;DHT22;24282;48.400;10.808;2024-02-26T02:06:51;4.00;81.30
38514;DHT22;24282;48.400;10.808;2024-02-26T02:09:18;4.10;81.30
38514;DHT22;24282;48.400;10.808;2024-02-26T02:11:43;4.00;81.30
38514;DHT22;24282;48.400;10.808;2024-02-26T02:14:10;4.10;81.50
38514;DHT22;24282;48.400;10.808;2024-02-26T02:16:36;4.10;81.70
38514;DHT22;24282;48.400;10.808;2024-02-26T02:19:02;4.10;81.70
38514;DHT22;24282;48.400;10.808;2024-02-26T02:21:27;4.10;81.80
38514;DHT22;24282;48.400;10.808;2024-02-26T02:23:53;4.10;81.80
38514;DHT22;24282;48.400;10.808;2024-02-26T02:26:19;4.10;81.80
38514;DHT22;24282;48.400;10.808;2024-02-26T02:28:46;4.20;81.80
38514;DHT22;24282;48.400;10.808;2024-02-26T02:31:13;4.10;81.70
38514;DHT22;24282;48.400;10.808;2024-02-26T02:33:38;4.10;81.80
38514;DHT22;24282;48.400;10.808;2024-02-26T02:36:04;4.20;81.90
38514;DHT22;24282;48.400;10.808;2024-02-26T02:38:34;4.20;82.00
38514;DHT22;24282;48.400;10.808;2024-02-26T02:41:00;4.20;81.90
38514;DHT22;24282;48.400;10.808;2024-02-26T02:43:26;4.20;81.80
38514;DHT22;24282;48.400;10.808;2024-02-26T02:45:51;4.20;81.90
38514;DHT22;24282;48.400;10.808;2024-02-26T02:48:17;4.20;81.70
38514;DHT22;24282;48.400;10.808;2024-02-26T02:50:44;4.30;81.50
38514;DHT22;24282;48.400;10.808;2024-02-26T02:53:10;4.20;81.60
38514;DHT22;24282;48.400;10.808;2024-02-26T02:55:36;4.20;81.60
38514;DHT22;24282;48.400;10.808;2024-02-26T02:58:01;4.20;81.80
38514;DHT22;24282;48.400;10.808;2024-02-26T03:00:27;4.20;81.80
38514;DHT22;24282;48.400;10.808;2024-02-26T03:02:53;4.20;82.00
38514;DHT22;24282;48.400;10.808;2024-02-26T03:05:19;4.30;82.00
38514;DHT22;24282;48.400;10.808;2024-02-26T03:07:44;4.20;81.80
38514;DHT22;24282;48.400;10.808;2024-02-26T03:10:10;4.20;81.70
38514;DHT22;24282;48.400;10.808;2024-02-26T03:12:36;4.20;81.80
38514;DHT22;24282;48.400;10.808;2024-02-26T03:15:05;4.30;81.80
38514;DHT22;24282;48.400;10.808;2024-02-26T03:17:31;4.20;81.80
38514;DHT22;24282;48.400;10.808;2024-02-26T03:19:57;4.20;81.80
38514;DHT22;24282;48.400;10.808;2024-02-26T03:22:22;4.20;82.00
38514;DHT22;24282;48.400;10.808;2024-02-26T03:24:48;4.20;82.00
38514;DHT22;24282;48.400;10.808;2024-02-26T03:27:14;4.20;81.80
38514;DHT22;24282;48.400;10.808;2024-02-26T03:29:40;4.20;81.80
38514;DHT22;24282;48.400;10.808;2024-02-26T03:32:06;4.20;81.90
38514;DHT22;24282;48.400;10.808;2024-02-26T03:34:33;4.20;82.00
38514;DHT22;24282;48.400;10.808;2024-02-26T03:37:04;4.20;82.00
38514;DHT22;24282;48.400;10.808;2024-02-26T03:39:30;4.20;82.00
38514;DHT22;24282;48.400;10.808;2024-02-26T03:41:56;4.20;82.00
38514;DHT22;24282;48.400;10.808;2024-02-26T03:44:22;4.20;81.80
38514;DHT22;24282;48.400;10.808;2024-02-26T03:46:47;4.20;81.80
38514;DHT22;24282;48.400;10.808;2024-02-26T03:49:13;4.20;81.80
38514;DHT22;24282;48.400;10.808;2024-02-26T03:51:39;4.20;81.80
38514;DHT22;24282;48.400;10.808;2024-02-26T03:54:05;4.20;81.70
38514;DHT22;24282;48.400;10.808;2024-02-26T03:56:30;4.20;81.80
38514;DHT22;24282;48.400;10.808;2024-02-26T03:58:56;4.20;81.80
38514;DHT22;24282;48.400;10.808;2024-02-26T04:01:22;4.20;81.80
38514;DHT22;24282;48.400;10.808;2024-02-26T04:03:50;4.20;81.60
38514;DHT22;24282;48.400;10.808;2024-02-26T04:06:18;4.10;81.60
38514;DHT22;24282;48.400;10.808;2024-02-26T04:08:46;4.10;81.70
38514;DHT22;24282;48.400;10.808;2024-02-26T04:11:12;4.10;81.50
38514;DHT22;24282;48.400;10.808;2024-02-26T04:13:38;4.10;81.40
38514;DHT22;24282;48.400;10.808;2024-02-26T04:16:05;4.20;81.50
38514;DHT22;24282;48.400;10.808;2024-02-26T04:18:32;4.10;81.60
38514;DHT22;24282;48.400;10.808;2024-02-26T04:20:58;4.20;81.60
38514;DHT22;24282;48.400;10.808;2024-02-26T04:23:24;4.20;81.40
38514;DHT22;24282;48.400;10.808;2024-02-26T04:25:50;4.20;81.10
38514;DHT22;24282;48.400;10.808;2024-02-26T04:28:16;4.10;81.10
38514;DHT22;24282;48.400;10.808;2024-02-26T04:30:42;4.20;81.20
38514;DHT22;24282;48.400;10.808;2024-02-26T04:33:07;4.10;81.30
38514;DHT22;24282;48.400;10.808;2024-02-26T04:35:33;4.10;81.30
38514;DHT22;24282;48.400;10.808;2024-02-26T04:38:01;4.20;81.30
38514;DHT22;24282;48.400;10.808;2024-02-26T04:40:26;4.10;80.90
38514;DHT22;24282;48.400;10.808;2024-02-26T04:42:52;4.20;81.00
38514;DHT22;24282;48.400;10.808;2024-02-26T04:45:18;4.20;80.40
38514;DHT22;24282;48.400;10.808;2024-02-26T04:47:43;4.20;80.70
38514;DHT22;24282;48.400;10.808;2024-02-26T04:50:09;4.20;80.80
38514;DHT22;24282;48.400;10.808;2024-02-26T04:52:35;4.20;80.90
38514;DHT22;24282;48.400;10.808;2024-02-26T04:55:02;4.20;80.90
38514;DHT22;24282;48.400;10.808;2024-02-26T04:57:28;4.20;80.90
38514;DHT22;24282;48.400;10.808;2024-02-26T04:59:54;4.20;80.90
38514;DHT22;24282;48.400;10.808;2024-02-26T05:02:19;4.10;81.10
38514;DHT22;24282;48.400;10.808;2024-02-26T05:04:45;4.20;81.10
38514;DHT22;24282;48.400;10.808;2024-02-26T05:07:11;4.20;80.70
38514;DHT22;24282;48.400;10.808;2024-02-26T05:09:38;4.20;81.00
38514;DHT22;24282;48.400;10.808;2024-02-26T05:12:04;4.10;81.20
38514;DHT22;24282;48.400;10.808;2024-02-26T05:14:29;4.20;81.40
38514;DHT22;24282;48.400;10.808;2024-02-26T05:16:55;4.20;81.60
38514;DHT22;24282;48.400;10.808;2024-02-26T05:19:21;4.20;81.60
38514;DHT22;24282;48.400;10.808;2024-02-26T05:21:47;4.20;81.50
38514;DHT22;24282;48.400;10.808;2024-02-26T05:24:14;4.20;81.30
38514;DHT22;24282;48.400;10.808;2024-02-26T05:26:43;4.20;81.30
38514;DHT22;24282;48.400;10.808;2024-02-26T05:29:09;4.20;81.20
38514;DHT22;24282;48.400;10.808;2024-02-26T05:31:35;4.20;81.20
38514;DHT22;24282;48.400;10.808;2024-02-26T05:34:00;4.20;81.40
38514;DHT22;24282;48.400;10.808;2024-02-26T05:36:26;4.20;81.60
38514;DHT22;24282;48.400;10.808;2024-02-26T05:38:54;4.20;81.70
38514;DHT22;24282;48.400;10.808;2024-02-26T05:41:20;4.20;81.90
38514;DHT22;24282;48.400;10.808;2024-02-26T05:43:52;4.20;81.90
38514;DHT22;24282;48.400;10.808;2024-02-26T05:46:18;4.20;82.00
38514;DHT22;24282;48.400;10.808;2024-02-26T05:48:46;4.20;81.90
38514;DHT22;24282;48.400;10.808;2024-02-26T05:51:12;4.20;81.70
38514;DHT22;24282;48.400;10.808;2024-02-26T05:53:38;4.20;81.50
38514;DHT22;24282;48.400;10.808;2024-02-26T05:56:04;4.20;81.60
38514;DHT22;24282;48.400;10.808;2024-02-26T05:58:31;4.20;81.90
38514;DHT22;24282;48.400;10.808;2024-02-26T06:00:57;4.20;81.80
38514;DHT22;24282;48.400;10.808;2024-02-26T06:03:22;4.20;81.90
38514;DHT22;24282;48.400;10.808;2024-02-26T06:05:48;4.20;81.80
38514;DHT22;24282;48.400;10.808;2024-02-26T06:08:14;4.30;81.60
38514;DHT22;24282;48.400;10.808;2024-02-26T06:10:39;4.20;81.50
38514;DHT22;24282;48.400;10.808;2024-02-26T06:13:05;4.20;81.50
38514;DHT22;24282;48.400;10.808;2024-02-26T06:15:31;4.20;81.70
38514;DHT22;24282;48.400;10.808;2024-02-26T06:17:57;4.20;81.90
38514;DHT22;24282;48.400;10.808;2024-02-26T06:20:22;4.20;81.80
38514;DHT22;24282;48.400;10.808;2024-02-26T06:22:48;4.30;81.20
38514;DHT22;24282;48.400;10.808;2024-02-26T06:25:14;4.30;81.10
38514;DHT22;24282;48.400;10.808;2024-02-26T06:27:40;4.30;81.30
38514;DHT22;24282;48.400;10.808;2024-02-26T06:30:06;4.30;81.20
38514;DHT22;24282;48.400;10.808;2024-02-26T06:32:34;4.30;81.10
38514;DHT22;24282;48.400;10.808;2024-02-26T06:34:59;4.30;81.30
38514;DHT22;24282;48.400;10.808;2024-02-26T06:37:25;4.30;81.30
38514;DHT22;24282;48.400;10.808;2024-02-26T06:39:51;4.30;81.40
38514;DHT22;24282;48.400;10.808;2024-02-26T06:42:17;4.30;81.30
38514;DHT22;24282;48.400;10.808;2024-02-26T06:44:43;4.30;81.40
38514;DHT22;24282;48.400;10.808;2024-02-26T06:47:09;4.30;81.70
38514;DHT22;24282;48.400;10.808;2024-02-26T06:49:34;4.30;81.80
38514;DHT22;24282;48.400;10.808;2024-02-26T06:52:00;4.30;82.10
38514;DHT22;24282;48.400;10.808;2024-02-26T06:54:26;4.40;81.90
38514;DHT22;24282;48.400;10.808;2024-02-26T06:56:52;4.40;82.00
38514;DHT22;24282;48.400;10.808;2024-02-26T06:59:17;4.40;82.30
38514;DHT22;24282;48.400;10.808;2024-02-26T07:01:44;4.50;81.60
38514;DHT22;24282;48.400;10.808;2024-02-26T07:04:09;4.50;81.30
38514;DHT22;24282;48.400;10.808;2024-02-26T07:06:36;4.50;81.60
38514;DHT22;24282;48.400;10.808;2024-02-26T07:09:02;4.50;81.70
38514;DHT22;24282;48.400;10.808;2024-02-26T07:11:28;4.50;81.20
38514;DHT22;24282;48.400;10.808;2024-02-26T07:13:54;4.50;81.00
38514;DHT22;24282;48.400;10.808;2024-02-26T07:16:19;4.50;81.00
38514;DHT22;24282;48.400;10.808;2024-02-26T07:18:45;4.50;81.20
38514;DHT22;24282;48.400;10.808;2024-02-26T07:21:14;4.50;81.20
38514;DHT22;24282;48.400;10.808;2024-02-26T07:23:40;4.50;81.30
38514;DHT22;24282;48.400;10.808;2024-02-26T07:26:05;4.50;80.80
38514;DHT22;24282;48.400;10.808;2024-02-26T07:28:33;4.50;80.90
38514;DHT22;24282;48.400;10.808;2024-02-26T07:30:59;4.50;81.30
38514;DHT22;24282;48.400;10.808;2024-02-26T07:33:25;4.60;81.30
38514;DHT22;24282;48.400;10.808;2024-02-26T07:35:50;4.60;81.00
38514;DHT22;24282;48.400;10.808;2024-02-26T07:38:16;4.60;81.30
38514;DHT22;24282;48.400;10.808;2024-02-26T07:40:42;4.70;81.30
38514;DHT22;24282;48.400;10.808;2024-02-26T07:43:07;4.70;80.90
38514;DHT22;24282;48.400;10.808;2024-02-26T07:45:33;4.80;80.30
38514;DHT22;24282;48.400;10.808;2024-02-26T07:47:59;4.90;80.20
38514;DHT22;24282;48.400;10.808;2024-02-26T07:50:24;4.90;80.20
38514;DHT22;24282;48.400;10.808;2024-02-26T07:52:50;4.90;80.20
38514;DHT22;24282;48.400;10.808;2024-02-26T07:55:16;5.00;80.00
38514;DHT22;24282;48.400;10.808;2024-02-26T07:57:43;5.00;79.70
38514;DHT22;24282;48.400;10.808;2024-02-26T08:00:09;5.00;79.50
38514;DHT22;24282;48.400;10.808;2024-02-26T08:02:38;5.10;79.10
38514;DHT22;24282;48.400;10.808;2024-02-26T08:05:05;5.10;78.90
38514;DHT22;24282;48.400;10.808;2024-02-26T08:07:30;5.10;78.90
38514;DHT22;24282;48.400;10.808;2024-02-26T08:09:56;5.20;78.90
38514;DHT22;24282;48.400;10.808;2024-02-26T08:12:22;5.20;78.90
38514;DHT22;24282;48.400;10.808;2024-02-26T08:14:47;5.30;78.80
38514;DHT22;24282;48.400;10.808;2024-02-26T08:17:13;5.40;78.50
38514;DHT22;24282;48.400;10.808;2024-02-26T08:19:39;5.40;78.10
38514;DHT22;24282;48.400;10.808;2024-02-26T08:22:04;5.50;78.00
38514;DHT22;24282;48.400;10.808;2024-02-26T08:24:30;5.50;77.80
38514;DHT22;24282;48.400;10.808;2024-02-26T08:26:56;5.70;77.30
38514;DHT22;24282;48.400;10.808;2024-02-26T08:29:22;5.70;77.10
38514;DHT22;24282;48.400;10.808;2024-02-26T08:31:47;5.80;76.70
38514;DHT22;24282;48.400;10.808;2024-02-26T08:34:14;5.80;76.10
38514;DHT22;24282;48.400;10.808;2024-02-26T08:36:40;5.80;76.30
38514;DHT22;24282;48.400;10.808;2024-02-26T08:39:05;5.80;76.50
38514;DHT22;24282;48.400;10.808;2024-02-26T08:41:32;5.90;76.10
38514;DHT22;24282;48.400;10.808;2024-02-26T08:43:57;5.90;75.80
38514;DHT22;24282;48.400;10.808;2024-02-26T08:46:23;5.90;75.90
38514;DHT22;24282;48.400;10.808;2024-02-26T08:48:49;5.90;76.00
38514;DHT22;24282;48.400;10.808;2024-02-26T08:51:15;5.90;75.80
38514;DHT22;24282;48.400;10.808;2024-02-26T08:53:40;5.90;75.70
38514;DHT22;24282;48.400;10.808;2024-02-26T08:56:06;5.90;75.80
38514;DHT22;24282;48.400;10.808;2024-02-26T08:58:32;5.90;75.80
38514;DHT22;24282;48.400;10.808;2024-02-26T09:00:57;6.00;75.90
38514;DHT22;24282;48.400;10.808;2024-02-26T09:03:23;6.00;75.80
38514;DHT22;24282;48.400;10.808;2024-02-26T09:05:49;6.00;75.70
38514;DHT22;24282;48.400;10.808;2024-02-26T09:08:15;6.10;75.80
38514;DHT22;24282;48.400;10.808;2024-02-26T09:10:41;6.10;75.90
38514;DHT22;24282;48.400;10.808;2024-02-26T09:13:07;6.10;75.70
38514;DHT22;24282;48.400;10.808;2024-02-26T09:15:33;6.20;75.80
38514;DHT22;24282;48.400;10.808;2024-02-26T09:17:58;6.20;75.80
38514;DHT22;24282;48.400;10.808;2024-02-26T09:20:24;6.20;75.80
38514;DHT22;24282;48.400;10.808;2024-02-26T09:22:50;6.20;75.80
38514;DHT22;24282;48.400;10.808;2024-02-26T09:25:16;6.20;75.60
38514;DHT22;24282;48.400;10.808;2024-02-26T09:27:43;6.30;75.90
38514;DHT22;24282;48.400;10.808;2024-02-26T09:30:10;6.30;75.70
38514;DHT22;24282;48.400;10.808;2024-02-26T09:32:36;6.40;75.60
38514;DHT22;24282;48.400;10.808;2024-02-26T09:35:02;6.40;75.80
38514;DHT22;24282;48.400;10.808;2024-02-26T09:37:27;6.40;75.70
38514;DHT22;24282;48.400;10.808;2024-02-26T09:39:53;6.50;75.30
38514;DHT22;24282;48.400;10.808;2024-02-26T09:42:19;6.50;74.90
38514;DHT22;24282;48.400;10.808;2024-02-26T09:44:45;6.50;74.30
38514;DHT22;24282;48.400;10.808;2024-02-26T09:47:12;6.60;73.80
38514;DHT22;24282;48.400;10.808;2024-02-26T09:49:42;6.60;74.20
38514;DHT22;24282;48.400;10.808;2024-02-26T09:52:08;6.80;74.40
38514;DHT22;24282;48.400;10.808;2024-02-26T09:54:38;6.90;74.10
38514;DHT22;24282;48.400;10.808;2024-02-26T09:57:05;6.90;73.90
38514;DHT22;24282;48.400;10.808;2024-02-26T09:59:40;7.00;73.90
38514;DHT22;24282;48.400;10.808;2024-02-26T10:02:11;7.10;74.20
38514;DHT22;24282;48.400;10.808;2024-02-26T10:04:39;7.10;74.50
38514;DHT22;24282;48.400;10.808;2024-02-26T10:07:10;7.20;74.30
38514;DHT22;24282;48.400;10.808;2024-02-26T10:09:36;7.20;74.20
38514;DHT22;24282;48.400;10.808;2024-02-26T10:12:03;7.20;74.20
38514;DHT22;24282;48.400;10.808;2024-02-26T10:14:29;7.30;74.30
38514;DHT22;24282;48.400;10.808;2024-02-26T10:16:55;7.30;73.70
38514;DHT22;24282;48.400;10.808;2024-02-26T10:19:30;7.40;74.00
38514;DHT22;24282;48.400;10.808;2024-02-26T10:22:00;7.40;73.20
38514;DHT22;24282;48.400;10.808;2024-02-26T10:24:28;7.50;73.30
38514;DHT22;24282;48.400;10.808;2024-02-26T10:26:56;7.60;71.00
38514;DHT22;24282;48.400;10.808;2024-02-26T10:29:24;7.60;71.20
38514;DHT22;24282;48.400;10.808;2024-02-26T10:31:53;7.60;72.10
38514;DHT22;24282;48.400;10.808;2024-02-26T10:34:20;7.60;72.30
38514;DHT22;24282;48.400;10.808;2024-02-26T10:36:46;7.70;72.30
38514;DHT22;24282;48.400;10.808;2024-02-26T10:39:12;7.70;72.00
38514;DHT22;24282;48.400;10.808;2024-02-26T10:41:40;7.70;72.20
38514;DHT22;24282;48.400;10.808;2024-02-26T10:44:06;7.80;71.80
38514;DHT22;24282;48.400;10.808;2024-02-26T10:46:34;7.80;71.10
38514;DHT22;24282;48.400;10.808;2024-02-26T10:49:00;7.80;71.40
38514;DHT22;24282;48.400;10.808;2024-02-26T10:51:28;7.80;72.00
38514;DHT22;24282;48.400;10.808;2024-02-26T10:53:58;7.90;72.00
38514;DHT22;24282;48.400;10.808;2024-02-26T10:56:26;7.90;71.80
38514;DHT22;24282;48.400;10.808;2024-02-26T10:58:55;7.90;72.00
38514;DHT22;24282;48.400;10.808;2024-02-26T11:01:21;8.00;72.40
38514;DHT22;24282;48.400;10.808;2024-02-26T11:03:50;8.00;72.90
38514;DHT22;24282;48.400;10.808;2024-02-26T11:06:17;8.10;72.50
38514;DHT22;24282;48.400;10.808;2024-02-26T11:08:44;8.10;72.20
38514;DHT22;24282;48.400;10.808;2024-02-26T11:11:10;8.20;72.00
38514;DHT22;24282;48.400;10.808;2024-02-26T11:13:41;8.20;71.80
38514;DHT22;24282;48.400;10.808;2024-02-26T11:16:11;8.30;72.20
38514;DHT22;24282;48.400;10.808;2024-02-26T11:18:39;8.40;72.60
38514;DHT22;24282;48.400;10.808;2024-02-26T11:21:05;8.40;72.00
38514;DHT22;24282;48.400;10.808;2024-02-26T11:23:34;8.50;71.10
38514;DHT22;24282;48.400;10.808;2024-02-26T11:26:04;8.60;70.60
38514;DHT22;24282;48.400;10.808;2024-02-26T11:28:32;8.80;70.30
38514;DHT22;24282;48.400;10.808;2024-02-26T11:31:00;8.80;69.00
38514;DHT22;24282;48.400;10.808;2024-02-26T11:33:27;8.90;68.40
38514;DHT22;24282;48.400;10.808;2024-02-26T11:35:54;8.90;68.60
38514;DHT22;24282;48.400;10.808;2024-02-26T11:38:21;8.90;68.70
38514;DHT22;24282;48.400;10.808;2024-02-26T11:40:47;9.10;68.90
38514;DHT22;24282;48.400;10.808;2024-02-26T11:43:14;9.10;68.70
38514;DHT22;24282;48.400;10.808;2024-02-26T11:48:12;9.40;67.80
38514;DHT22;24282;48.400;10.808;2024-02-26T11:50:41;9.40;68.10
38514;DHT22;24282;48.400;10.808;2024-02-26T11:53:29;9.50;68.40
38514;DHT22;24282;48.400;10.808;2024-02-26T11:58:48;9.70;67.40
38514;DHT22;24282;48.400;10.808;2024-02-26T12:01:37;9.80;67.80
38514;DHT22;24282;48.400;10.808;2024-02-26T12:04:15;9.90;66.30
38514;DHT22;24282;48.400;10.808;2024-02-26T12:06:57;10.00;66.30
38514;DHT22;24282;48.400;10.808;2024-02-26T12:09:35;10.10;65.60
38514;DHT22;24282;48.400;10.808;2024-02-26T12:12:06;10.20;65.50
38514;DHT22;24282;48.400;10.808;2024-02-26T12:14:55;10.20;65.20
38514;DHT22;24282;48.400;10.808;2024-02-26T12:17:25;10.10;65.40
38514;DHT22;24282;48.400;10.808;2024-02-26T12:19:52;10.00;65.50
38514;DHT22;24282;48.400;10.808;2024-02-26T12:22:19;9.90;66.30
38514;DHT22;24282;48.400;10.808;2024-02-26T12:24:45;9.80;66.60
38514;DHT22;24282;48.400;10.808;2024-02-26T12:27:11;9.80;66.90
38514;DHT22;24282;48.400;10.808;2024-02-26T12:29:37;9.70;67.70
38514;DHT22;24282;48.400;10.808;2024-02-26T12:32:04;9.80;67.60
38514;DHT22;24282;48.400;10.808;2024-02-26T12:34:31;9.80;67.50
38514;DHT22;24282;48.400;10.808;2024-02-26T12:36:57;9.80;67.20
38514;DHT22;24282;48.400;10.808;2024-02-26T12:39:23;9.80;67.50
38514;DHT22;24282;48.400;10.808;2024-02-26T12:41:49;9.80;67.80
38514;DHT22;24282;48.400;10.808;2024-02-26T12:44:24;9.80;67.80
38514;DHT22;24282;48.400;10.808;2024-02-26T12:46:49;9.80;67.60
38514;DHT22;24282;48.400;10.808;2024-02-26T12:49:15;9.80;67.40
38514;DHT22;24282;48.400;10.808;2024-02-26T12:51:45;9.80;67.50
38514;DHT22;24282;48.400;10.808;2024-02-26T12:54:11;9.80;67.60
38514;DHT22;24282;48.400;10.808;2024-02-26T12:56:37;9.80;67.90
38514;DHT22;24282;48.400;10.808;2024-02-26T12:59:03;9.80;67.90
38514;DHT22;24282;48.400;10.808;2024-02-26T13:01:30;9.90;68.70
38514;DHT22;24282;48.400;10.808;2024-02-26T13:03:56;9.90;68.80
38514;DHT22;24282;48.400;10.808;2024-02-26T13:06:22;9.90;68.70
38514;DHT22;24282;48.400;10.808;2024-02-26T13:08:49;9.80;69.10
38514;DHT22;24282;48.400;10.808;2024-02-26T13:11:15;9.90;69.50
38514;DHT22;24282;48.400;10.808;2024-02-26T13:13:40;9.90;69.90
38514;DHT22;24282;48.400;10.808;2024-02-26T13:16:10;9.90;70.00
38514;DHT22;24282;48.400;10.808;2024-02-26T13:18:36;9.90;69.60
38514;DHT22;24282;48.400;10.808;2024-02-26T13:21:15;9.90;69.90
38514;DHT22;24282;48.400;10.808;2024-02-26T13:23:42;9.90;69.60
38514;DHT22;24282;48.400;10.808;2024-02-26T13:26:08;9.90;69.60
38514;DHT22;24282;48.400;10.808;2024-02-26T13:28:37;9.90;69.60
38514;DHT22;24282;48.400;10.808;2024-02-26T13:31:03;10.00;69.80
38514;DHT22;24282;48.400;10.808;2024-02-26T13:33:31;9.90;70.30
38514;DHT22;24282;48.400;10.808;2024-02-26T13:35:58;10.00;69.70
38514;DHT22;24282;48.400;10.808;2024-02-26T13:38:24;9.90;69.50
38514;DHT22;24282;48.400;10.808;2024-02-26T13:40:54;9.90;69.70
38514;DHT22;24282;48.400;10.808;2024-02-26T13:43:22;9.90;70.10
38514;DHT22;24282;48.400;10.808;2024-02-26T13:45:48;9.90;70.20
38514;DHT22;24282;48.400;10.808;2024-02-26T13:48:14;9.80;70.50
38514;DHT22;24282;48.400;10.808;2024-02-26T13:50:41;9.70;70.40
38514;DHT22;24282;48.400;10.808;2024-02-26T13:53:09;9.70;70.50
38514;DHT22;24282;48.400;10.808;2024-02-26T13:55:34;9.70;70.80
38514;DHT22;24282;48.400;10.808;2024-02-26T13:58:01;9.70;71.20
38514;DHT22;24282;48.400;10.808;2024-02-26T14:00:28;9.60;71.10
38514;DHT22;24282;48.400;10.808;2024-02-26T14:02:54;9.60;71.40
38514;DHT22;24282;48.400;10.808;2024-02-26T14:05:20;9.60;71.50
38514;DHT22;24282;48.400;10.808;2024-02-26T14:07:46;9.50;71.60
38514;DHT22;24282;48.400;10.808;2024-02-26T14:10:12;9.50;71.80
38514;DHT22;24282;48.400;10.808;2024-02-26T14:12:38;9.50;72.20
38514;DHT22;24282;48.400;10.808;2024-02-26T14:15:08;9.40;72.30
38514;DHT22;24282;48.400;10.808;2024-02-26T14:17:35;9.40;72.50
38514;DHT22;24282;48.400;10.808;2024-02-26T14:20:01;9.40;72.90
38514;DHT22;24282;48.400;10.808;2024-02-26T14:22:26;9.30;72.90
38514;DHT22;24282;48.400;10.808;2024-02-26T14:24:53;9.30;73.00
38514;DHT22;24282;48.400;10.808;2024-02-26T14:27:19;9.30;73.20
38514;DHT22;24282;48.400;10.808;2024-02-26T14:29:48;9.30;73.40
38514;DHT22;24282;48.400;10.808;2024-02-26T14:32:13;9.20;73.50
38514;DHT22;24282;48.400;10.808;2024-02-26T14:34:39;9.20;73.70
38514;DHT22;24282;48.400;10.808;2024-02-26T14:37:05;9.10;74.00
38514;DHT22;24282;48.400;10.808;2024-02-26T14:39:34;9.10;74.10
38514;DHT22;24282;48.400;10.808;2024-02-26T14:42:00;9.10;73.90
38514;DHT22;24282;48.400;10.808;2024-02-26T14:44:26;9.10;74.00
38514;DHT22;24282;48.400;10.808;2024-02-26T14:46:52;9.10;74.00
38514;DHT22;24282;48.400;10.808;2024-02-26T14:49:18;9.10;73.90
38514;DHT22;24282;48.400;10.808;2024-02-26T14:51:45;9.10;74.10
38514;DHT22;24282;48.400;10.808;2024-02-26T14:54:11;9.10;74.30
38514;DHT22;24282;48.400;10.808;2024-02-26T14:56:37;9.10;74.30
38514;DHT22;24282;48.400;10.808;2024-02-26T14:59:03;9.10;74.10
38514;DHT22;24282;48.400;10.808;2024-02-26T15:01:28;9.10;74.30
38514;DHT22;24282;48.400;10.808;2024-02-26T15:03:54;9.10;74.40
38514;DHT22;24282;48.400;10.808;2024-02-26T15:06:20;9.00;74.50
38514;DHT22;24282;48.400;10.808;2024-02-26T15:08:47;9.00;74.70
38514;DHT22;24282;48.400;10.808;2024-02-26T15:11:12;9.00;74.90
38514;DHT22;24282;48.400;10.808;2024-02-26T15:13:38;9.00;74.90
38514;DHT22;24282;48.400;10.808;2024-02-26T15:16:05;9.00;75.00
38514;DHT22;24282;48.400;10.808;2024-02-26T15:18:31;9.00;75.10
38514;DHT22;24282;48.400;10.808;2024-02-26T15:20:57;9.00;75.20
38514;DHT22;24282;48.400;10.808;2024-02-26T15:23:23;9.00;75.20
38514;DHT22;24282;48.400;10.808;2024-02-26T15:25:48;9.00;75.20
38514;DHT22;24282;48.400;10.808;2024-02-26T15:28:14;9.00;75.20
38514;DHT22;24282;48.400;10.808;2024-02-26T15:30:41;9.00;75.30
38514;DHT22;24282;48.400;10.808;2024-02-26T15:33:06;9.00;75.40